Time;durP1;ratioP1;P1;durP2;ratioP2;P2;SDS_P1;SDS_P2;PMS_P1;PMS_P2;Temp;Humidity;BMP_temperature;BMP_pressure;BME280_temperature;BME280_humidity;BME280_pressure;Samples;Min_cycle;Max_cycle;Signal;HPM_P1;HPM_P2
2022/03/11 00:02:05;;;;;;;0.10;0.10;;;8.80;61.90;;;;;;6337319;22;20052;-68
2022/03/11 00:04:31;;;;;;;0.30;0.30;;;8.70;62.20;;;;;;6347416;22;20454;-68
2022/03/11 00:06:56;;;;;;;0.82;0.80;;;8.60;62.50;;;;;;6347621;22;20007;-68
2022/03/11 00:09:22;;;;;;;0.38;0.38;;;8.60;62.60;;;;;;6347757;22;20014;-68
2022/03/11 00:11:48;;;;;;;0.10;0.10;;;8.50;62.80;;;;;;6347370;22;20077;-69
2022/03/11 00:14:14;;;;;;;0.15;0.15;;;8.50;63.20;;;;;;6309570;22;20011;-68
2022/03/11 00:16:40;;;;;;;0.68;0.65;;;8.40;63.30;;;;;;6309597;22;20383;-69
2022/03/11 00:19:06;;;;;;;4.07;1.35;;;8.40;63.40;;;;;;6347459;22;20427;-69
2022/03/11 00:21:32;;;;;;;0.10;0.10;;;8.30;63.60;;;;;;6347213;22;20022;-68
2022/03/11 00:23:57;;;;;;;0.45;0.45;;;8.30;63.70;;;;;;6337360;22;20010;-68
2022/03/11 00:26:24;;;;;;;0.93;0.85;;;8.20;63.80;;;;;;6337599;22;20007;-69
2022/03/11 00:28:50;;;;;;;0.52;0.52;;;8.10;64.10;;;;;;6347052;22;20459;-68
2022/03/11 00:31:17;;;;;;;0.85;0.85;;;8.00;64.30;;;;;;6337472;22;20362;-68
2022/03/11 00:33:43;;;;;;;0.65;0.57;;;7.90;64.60;;;;;;6337142;22;20030;-68
2022/03/11 00:36:09;;;;;;;7.22;1.35;;;7.80;64.80;;;;;;6309574;22;20052;-69
2022/03/11 00:38:35;;;;;;;4.13;1.95;;;7.70;65.20;;;;;;6347008;22;20018;-69
2022/03/11 00:41:01;;;;;;;0.15;0.15;;;7.60;65.40;;;;;;6347213;22;20060;-69
2022/03/11 00:43:27;;;;;;;1.85;0.65;;;7.50;65.50;;;;;;6309728;22;20002;-69
2022/03/11 00:45:54;;;;;;;0.20;0.20;;;7.40;66.10;;;;;;6337250;22;20091;-69
2022/03/11 00:48:20;;;;;;;1.60;0.85;;;7.30;66.70;;;;;;6336683;22;20351;-68
2022/03/11 00:50:50;;;;;;;1.80;1.65;;;7.30;67.10;;;;;;6337079;22;20061;-68
2022/03/11 00:53:15;;;;;;;0.65;0.65;;;7.20;67.50;;;;;;6336964;22;20034;-68
2022/03/11 00:55:41;;;;;;;0.52;0.52;;;7.20;67.50;;;;;;6309474;22;20006;-69
2022/03/11 00:58:07;;;;;;;0.95;0.95;;;7.20;67.80;;;;;;6308929;22;20003;-69
2022/03/11 01:00:33;;;;;;;0.28;0.28;;;6.90;68.40;;;;;;6337050;22;20006;-69
2022/03/11 01:02:59;;;;;;;0.50;0.50;;;7.00;68.50;;;;;;6337166;22;20036;-69
2022/03/11 01:05:25;;;;;;;0.30;0.30;;;7.00;68.60;;;;;;6347143;22;20086;-69
2022/03/11 01:07:52;;;;;;;0.47;0.47;;;6.90;68.80;;;;;;6346998;22;20007;-69
2022/03/11 01:10:19;;;;;;;0.40;0.40;;;6.90;69.20;;;;;;6337031;22;20030;-69
2022/03/11 01:12:45;;;;;;;0.30;0.30;;;6.90;69.70;;;;;;6347032;22;20059;-69
2022/03/11 01:15:11;;;;;;;0.20;0.20;;;6.90;69.60;;;;;;6319469;22;20002;-68
2022/03/11 01:17:37;;;;;;;3.00;2.13;;;6.90;69.80;;;;;;6336679;22;20033;-69
2022/03/11 01:20:06;;;;;;;0.32;0.32;;;6.90;70.10;;;;;;6347146;22;20147;-69
2022/03/11 01:22:33;;;;;;;1.65;1.55;;;6.90;70.30;;;;;;6309334;22;20373;-69
2022/03/11 01:24:59;;;;;;;0.20;0.20;;;6.90;70.20;;;;;;6308910;22;20021;-69
2022/03/11 01:27:25;;;;;;;4.30;3.38;;;6.90;70.50;;;;;;6319462;22;20056;-69
2022/03/11 01:29:51;;;;;;;0.63;0.63;;;6.80;70.50;;;;;;6346764;22;20112;-69
2022/03/11 01:32:17;;;;;;;3.30;0.85;;;6.80;70.80;;;;;;6336906;22;20003;-69
2022/03/11 01:34:43;;;;;;;2.05;1.00;;;6.80;70.90;;;;;;6346722;22;20339;-69
2022/03/11 01:37:08;;;;;;;1.13;1.13;;;6.80;71.60;;;;;;6319356;22;20006;-69
2022/03/11 01:39:34;;;;;;;11.25;2.30;;;6.80;71.30;;;;;;6346723;22;20109;-69
2022/03/11 01:42:00;;;;;;;3.10;2.90;;;6.70;71.40;;;;;;6336872;22;20465;-68
2022/03/11 01:44:27;;;;;;;0.10;0.10;;;6.70;72.20;;;;;;6319202;22;20007;-68
2022/03/11 01:46:54;;;;;;;0.85;0.85;;;6.50;72.00;;;;;;6336604;22;20034;-68
2022/03/11 01:49:20;;;;;;;0.32;0.32;;;6.50;72.30;;;;;;6346866;22;20007;-67
2022/03/11 01:51:46;;;;;;;2.83;1.75;;;6.40;72.80;;;;;;6346497;22;20470;-67
2022/03/11 01:54:12;;;;;;;0.75;0.75;;;6.40;72.80;;;;;;6309090;22;20073;-68
2022/03/11 01:56:39;;;;;;;1.88;1.40;;;6.40;72.70;;;;;;6336704;22;20492;-68
2022/03/11 01:59:07;;;;;;;0.20;0.20;;;6.30;73.00;;;;;;6346777;22;20589;-67
2022/03/11 02:01:33;;;;;;;0.25;0.25;;;6.40;73.00;;;;;;6346484;22;20003;-69
2022/03/11 02:03:59;;;;;;;0.65;0.65;;;6.30;73.10;;;;;;6336766;22;20428;-68
2022/03/11 02:06:26;;;;;;;0.17;0.17;;;6.30;73.60;;;;;;6346944;22;20431;-68
2022/03/11 02:08:57;;;;;;;0.40;0.40;;;6.20;74.10;;;;;;6346464;22;20010;-69
2022/03/11 02:11:22;;;;;;;0.03;0.03;;;6.10;74.20;;;;;;6347021;22;20013;-68
2022/03/11 02:13:58;;;;;;;0.50;0.50;;;6.10;74.70;;;;;;6336453;22;20093;-68
2022/03/11 02:16:36;;;;;;;0.20;0.20;;;6.10;75.00;;;;;;6308626;22;20002;-68
2022/03/11 02:19:04;;;;;;;0.85;0.85;;;6.10;75.40;;;;;;6346766;22;20002;-68
2022/03/11 02:21:30;;;;;;;0.10;0.10;;;6.10;75.40;;;;;;6336580;22;20003;-68
2022/03/11 02:23:59;;;;;;;3.65;2.50;;;6.10;75.50;;;;;;6318931;22;20013;-68
2022/03/11 02:26:28;;;;;;;0.68;0.68;;;6.10;75.70;;;;;;6336709;22;20094;-68
2022/03/11 02:28:57;;;;;;;0.88;0.88;;;6.10;76.00;;;;;;6347808;22;20291;-69
2022/03/11 02:31:27;;;;;;;0.25;0.25;;;6.10;76.10;;;;;;6338373;22;20101;-68
2022/03/11 02:33:53;;;;;;;1.40;1.30;;;6.00;76.00;;;;;;6337873;22;20003;-68
2022/03/11 02:36:19;;;;;;;0.10;0.10;;;6.00;76.30;;;;;;6320891;22;20015;-68
2022/03/11 02:38:45;;;;;;;3.85;1.45;;;5.90;76.40;;;;;;6337808;22;20010;-68
2022/03/11 02:41:11;;;;;;;2.03;1.83;;;5.90;76.70;;;;;;6310819;22;20010;-68
2022/03/11 02:43:37;;;;;;;0.00;0.00;;;5.90;76.70;;;;;;6348197;22;20491;-68
2022/03/11 02:46:03;;;;;;;5.60;0.85;;;5.90;77.10;;;;;;6337960;22;20011;-68
2022/03/11 02:48:29;;;;;;;0.22;0.22;;;5.80;77.40;;;;;;6310714;22;20030;-68
2022/03/11 02:50:55;;;;;;;0.10;0.10;;;5.70;77.60;;;;;;6348021;22;20011;-68
2022/03/11 02:53:22;;;;;;;17.02;2.67;;;5.60;78.20;;;;;;6348306;22;20086;-68
2022/03/11 02:55:48;;;;;;;0.57;0.57;;;5.40;78.80;;;;;;6320537;22;20078;-68
2022/03/11 02:58:13;;;;;;;2.08;1.55;;;5.40;79.30;;;;;;6348036;22;20057;-69
2022/03/11 03:00:39;;;;;;;0.10;0.10;;;5.30;79.50;;;;;;6348059;22;20313;-68
2022/03/11 03:03:05;;;;;;;0.00;0.00;;;5.30;79.40;;;;;;6338127;22;19999;-68
2022/03/11 03:05:31;;;;;;;0.40;0.40;;;5.30;79.50;;;;;;6338000;22;20029;-68
2022/03/11 03:07:57;;;;;;;1.17;0.95;;;5.30;79.40;;;;;;6337691;22;20082;-69
2022/03/11 03:10:23;;;;;;;2.00;1.90;;;5.20;80.10;;;;;;6337927;22;20011;-68
2022/03/11 03:12:49;;;;;;;0.13;0.13;;;5.10;80.40;;;;;;6348035;22;20045;-69
2022/03/11 03:15:15;;;;;;;0.57;0.57;;;5.10;80.70;;;;;;6337917;22;20003;-68
2022/03/11 03:17:40;;;;;;;2.28;2.08;;;5.00;81.40;;;;;;6320241;22;20007;-69
2022/03/11 03:20:08;;;;;;;2.00;0.45;;;5.00;81.30;;;;;;6347789;22;20321;-68
2022/03/11 03:22:37;;;;;;;0.10;0.10;;;4.90;81.70;;;;;;6348121;22;20115;-68
2022/03/11 03:25:04;;;;;;;0.20;0.20;;;4.90;81.60;;;;;;6337760;22;20060;-69
2022/03/11 03:27:30;;;;;;;1.00;1.00;;;4.90;81.30;;;;;;6337956;22;20042;-69
2022/03/11 03:29:56;;;;;;;0.10;0.10;;;4.90;81.20;;;;;;6337528;22;20007;-68
2022/03/11 03:32:22;;;;;;;3.00;2.28;;;5.00;81.30;;;;;;6309890;22;20056;-68
2022/03/11 03:34:48;;;;;;;0.00;0.00;;;5.00;81.70;;;;;;6337274;22;20103;-68
2022/03/11 03:37:14;;;;;;;0.63;0.63;;;5.00;81.50;;;;;;6347958;22;20471;-69
2022/03/11 03:39:41;;;;;;;1.13;1.13;;;5.00;81.40;;;;;;6337141;22;20014;-69
2022/03/11 03:42:08;;;;;;;1.30;1.25;;;5.00;81.70;;;;;;6337838;22;19998;-68
2022/03/11 03:44:35;;;;;;;2.30;2.00;;;5.00;81.70;;;;;;6310033;22;20057;-68
2022/03/11 03:47:01;;;;;;;0.30;0.30;;;5.00;81.70;;;;;;6347593;22;20388;-68
2022/03/11 03:49:28;;;;;;;0.25;0.25;;;5.00;81.60;;;;;;6320118;22;20018;-68
2022/03/11 03:51:54;;;;;;;0.68;0.68;;;5.00;81.50;;;;;;6337411;22;20323;-68
2022/03/11 03:54:20;;;;;;;2.00;1.77;;;4.90;81.80;;;;;;6347722;22;20011;-69
2022/03/11 03:56:46;;;;;;;1.33;1.30;;;4.90;82.00;;;;;;6337402;22;20010;-67
2022/03/11 03:59:13;;;;;;;1.58;0.93;;;4.80;82.20;;;;;;6347409;22;20113;-68
2022/03/11 04:01:41;;;;;;;7.72;2.25;;;4.80;82.00;;;;;;6337383;22;20080;-68
2022/03/11 04:04:09;;;;;;;0.20;0.20;;;4.80;82.10;;;;;;6347699;22;20048;-68
2022/03/11 04:06:37;;;;;;;13.05;4.22;;;4.80;82.20;;;;;;6347387;22;20052;-68
2022/03/11 04:09:06;;;;;;;0.13;0.13;;;4.80;82.80;;;;;;6347548;22;20424;-68
2022/03/11 04:11:33;;;;;;;0.10;0.10;;;4.70;82.50;;;;;;6347371;22;20030;-68
2022/03/11 04:13:59;;;;;;;0.10;0.10;;;4.70;82.50;;;;;;6347451;22;20506;-68
2022/03/11 04:16:26;;;;;;;0.10;0.10;;;4.60;83.00;;;;;;6337441;22;20010;-68
2022/03/11 04:18:52;;;;;;;1.40;1.35;;;4.50;83.10;;;;;;6319874;22;20462;-68
2022/03/11 04:21:19;;;;;;;2.63;2.40;;;4.30;83.80;;;;;;6337313;22;19999;-68
2022/03/11 04:23:47;;;;;;;0.20;0.20;;;4.30;84.10;;;;;;6337234;22;20038;-69
2022/03/11 04:26:13;;;;;;;0.10;0.10;;;4.20;84.40;;;;;;6309927;22;20007;-68
2022/03/11 04:28:39;;;;;;;1.30;1.27;;;4.20;84.50;;;;;;6337308;22;20010;-68
2022/03/11 04:31:07;;;;;;;0.00;0.00;;;4.20;84.30;;;;;;6337191;22;20003;-68
2022/03/11 04:33:34;;;;;;;0.95;0.52;;;4.10;84.90;;;;;;6347499;22;20516;-68
2022/03/11 04:36:01;;;;;;;1.17;1.17;;;4.10;85.40;;;;;;6346759;22;20380;-68
2022/03/11 04:38:27;;;;;;;0.08;0.08;;;4.00;85.30;;;;;;6337180;22;20007;-67
2022/03/11 04:40:52;;;;;;;0.52;0.30;;;4.00;85.20;;;;;;6337004;22;20006;-68
2022/03/11 04:43:20;;;;;;;1.60;1.50;;;4.00;85.50;;;;;;6347319;22;20135;-68
2022/03/11 04:45:45;;;;;;;0.70;0.65;;;4.00;85.70;;;;;;6319554;22;20014;-68
2022/03/11 04:48:12;;;;;;;5.45;1.55;;;4.00;85.40;;;;;;6347173;22;20386;-68
2022/03/11 04:50:38;;;;;;;0.52;0.52;;;4.00;85.20;;;;;;6346666;22;20072;-68
2022/03/11 04:53:04;;;;;;;0.10;0.10;;;3.90;85.10;;;;;;6346907;22;20038;-68
2022/03/11 04:55:30;;;;;;;1.40;1.33;;;3.90;85.40;;;;;;6347067;22;20007;-69
2022/03/11 04:57:56;;;;;;;1.05;1.05;;;3.90;86.40;;;;;;6336962;22;20007;-68
2022/03/11 05:00:22;;;;;;;0.10;0.10;;;4.00;86.60;;;;;;6295324;22;20321;-68
2022/03/11 05:02:48;;;;;;;0.28;0.28;;;3.90;86.70;;;;;;6336988;22;20014;-67
2022/03/11 05:05:15;;;;;;;2.58;2.38;;;3.80;87.00;;;;;;6345643;22;20002;-68
2022/03/11 05:07:42;;;;;;;0.57;0.57;;;3.80;87.20;;;;;;6346181;22;20003;-69
2022/03/11 05:10:10;;;;;;;0.13;0.13;;;3.80;87.70;;;;;;6319515;22;20309;-68
2022/03/11 05:12:37;;;;;;;0.90;0.90;;;3.70;88.90;;;;;;6336716;22;20010;-68
2022/03/11 05:15:05;;;;;;;0.70;0.70;;;3.60;88.20;;;;;;6336851;22;20015;-68
2022/03/11 05:17:31;;;;;;;0.30;0.30;;;3.50;87.40;;;;;;6346803;22;20003;-69
2022/03/11 05:19:57;;;;;;;0.10;0.10;;;3.40;87.10;;;;;;6309296;22;20030;-70
2022/03/11 05:22:24;;;;;;;0.10;0.10;;;3.50;86.70;;;;;;6346774;22;20444;-68
2022/03/11 05:24:50;;;;;;;0.82;0.82;;;3.50;86.40;;;;;;6346957;22;20520;-68
2022/03/11 05:27:16;;;;;;;0.73;0.73;;;3.60;91.80;;;;;;6346809;22;20002;-68
2022/03/11 05:29:42;;;;;;;0.20;0.20;;;3.70;88.20;;;;;;6336581;22;20340;-69
2022/03/11 05:32:09;;;;;;;2.17;0.85;;;3.70;87.30;;;;;;6346825;22;20003;-70
2022/03/11 05:34:39;;;;;;;2.00;1.80;;;3.60;86.30;;;;;;6336825;22;20007;-69
2022/03/11 05:37:06;;;;;;;0.40;0.40;;;3.50;86.50;;;;;;6346472;22;20018;-66
2022/03/11 05:39:33;;;;;;;0.10;0.10;;;3.40;86.50;;;;;;6345941;22;20264;-68
2022/03/11 05:41:59;;;;;;;1.60;1.52;;;3.30;87.30;;;;;;6346789;22;20003;-66
2022/03/11 05:44:25;;;;;;;5.65;3.53;;;3.20;87.60;;;;;;6336877;22;20010;-66
2022/03/11 05:46:55;;;;;;;0.10;0.10;;;3.20;88.70;;;;;;6336652;22;20366;-66
2022/03/11 05:49:21;;;;;;;3.70;3.40;;;3.00;88.60;;;;;;6346556;22;20007;-65
2022/03/11 05:51:47;;;;;;;11.32;4.95;;;2.90;90.00;;;;;;6335505;22;20011;-66
2022/03/11 05:54:13;;;;;;;6.75;6.20;;;2.90;90.50;;;;;;6336636;22;20007;-66
2022/03/11 05:56:39;;;;;;;1.05;0.95;;;2.90;90.80;;;;;;6336655;22;20316;-66
2022/03/11 05:59:05;;;;;;;0.85;0.85;;;2.80;90.70;;;;;;6336434;22;20003;-65
2022/03/11 06:01:35;;;;;;;0.30;0.30;;;2.80;90.20;;;;;;6336591;22;20328;-65
2022/03/11 06:04:03;;;;;;;0.75;0.75;;;2.60;90.00;;;;;;6348450;22;20086;-65
2022/03/11 06:06:30;;;;;;;0.10;0.10;;;2.60;89.50;;;;;;6338065;22;20331;-65
2022/03/11 06:09:00;;;;;;;6.72;2.30;;;2.60;90.00;;;;;;6311194;22;20028;-66
2022/03/11 06:11:27;;;;;;;1.75;1.65;;;2.60;90.40;;;;;;6349097;22;20010;-65
2022/03/11 06:13:53;;;;;;;1.08;0.90;;;2.60;90.30;;;;;;6338271;22;19999;-65
2022/03/11 06:16:19;;;;;;;3.20;1.75;;;2.60;89.90;;;;;;6284457;22;20444;-65
2022/03/11 06:18:45;;;;;;;0.20;0.20;;;2.60;89.30;;;;;;6348528;22;20006;-65
2022/03/11 06:21:11;;;;;;;0.30;0.30;;;2.60;90.00;;;;;;6348528;22;20423;-73
2022/03/11 06:23:37;;;;;;;0.95;0.95;;;2.60;89.10;;;;;;6338428;22;20064;-66
2022/03/11 06:26:04;;;;;;;0.52;0.52;;;2.70;88.90;;;;;;6320507;22;20010;-66
2022/03/11 06:28:30;;;;;;;0.40;0.40;;;2.70;88.90;;;;;;6348341;22;20025;-66
2022/03/11 06:30:57;;;;;;;0.20;0.20;;;2.70;89.10;;;;;;6310616;22;20003;-67
2022/03/11 06:33:22;;;;;;;0.10;0.10;;;2.70;88.30;;;;;;6337448;22;19998;-67
2022/03/11 06:35:49;;;;;;;0.85;0.85;;;2.80;88.20;;;;;;6336995;22;20446;-68
2022/03/11 06:38:15;;;;;;;1.13;0.82;;;2.80;87.90;;;;;;6337249;22;20007;-67
2022/03/11 06:40:41;;;;;;;0.38;0.38;;;2.90;86.80;;;;;;6348487;22;20011;-67
2022/03/11 06:43:07;;;;;;;0.93;0.93;;;3.00;86.50;;;;;;6338190;22;20121;-67
2022/03/11 06:45:34;;;;;;;1.45;1.40;;;3.00;86.60;;;;;;6338250;22;20391;-69
2022/03/11 06:47:59;;;;;;;0.55;0.55;;;3.10;85.90;;;;;;6348113;22;20007;-68
2022/03/11 06:50:25;;;;;;;0.65;0.65;;;3.10;85.10;;;;;;6337928;22;20010;-68
2022/03/11 06:52:51;;;;;;;0.45;0.45;;;3.20;84.60;;;;;;6348016;22;20014;-68
2022/03/11 06:55:17;;;;;;;1.08;1.00;;;3.30;84.40;;;;;;6338171;22;20078;-67
2022/03/11 06:57:44;;;;;;;0.93;0.40;;;3.30;84.30;;;;;;6338357;22;20089;-67
2022/03/11 07:00:12;;;;;;;1.15;1.00;;;3.40;84.00;;;;;;6337710;22;20029;-66
2022/03/11 07:02:41;;;;;;;0.55;0.55;;;3.60;83.40;;;;;;6320907;22;20440;-67
2022/03/11 07:05:09;;;;;;;0.10;0.10;;;3.60;82.50;;;;;;6348396;22;20420;-67
2022/03/11 07:07:35;;;;;;;0.10;0.10;;;3.70;82.30;;;;;;6337920;22;20002;-67
2022/03/11 07:10:03;;;;;;;0.10;0.10;;;3.80;83.80;;;;;;6337987;22;20074;-67
2022/03/11 07:12:31;;;;;;;0.10;0.10;;;3.80;83.70;;;;;;6310778;22;20006;-67
2022/03/11 07:15:00;;;;;;;1.90;1.75;;;3.90;83.60;;;;;;6337144;22;20087;-67
2022/03/11 07:17:27;;;;;;;0.10;0.10;;;3.90;83.70;;;;;;6320554;22;20010;-67
2022/03/11 07:19:53;;;;;;;0.38;0.38;;;4.00;83.50;;;;;;6337659;22;20011;-66
2022/03/11 07:22:19;;;;;;;9.63;2.97;;;4.10;81.80;;;;;;6337747;22;20015;-66
2022/03/11 07:24:45;;;;;;;0.10;0.10;;;4.10;80.90;;;;;;6337959;22;20011;-67
2022/03/11 07:27:12;;;;;;;1.50;1.40;;;4.20;80.90;;;;;;6337661;22;20002;-67
2022/03/11 07:29:38;;;;;;;2.45;1.08;;;4.20;80.60;;;;;;6348105;22;20010;-66
2022/03/11 07:32:04;;;;;;;4.82;2.75;;;4.30;79.80;;;;;;6337793;22;20080;-67
2022/03/11 07:34:30;;;;;;;0.50;0.50;;;4.40;79.50;;;;;;6347978;22;20010;-67
2022/03/11 07:36:56;;;;;;;0.40;0.40;;;4.40;78.30;;;;;;6337490;22;20010;-67
2022/03/11 07:39:22;;;;;;;1.13;0.90;;;4.50;78.30;;;;;;6337676;22;20125;-68
2022/03/11 07:41:49;;;;;;;1.73;1.63;;;4.60;77.90;;;;;;6337633;22;20007;-68
2022/03/11 07:44:16;;;;;;;1.42;0.90;;;4.70;77.20;;;;;;6337858;22;20006;-68
2022/03/11 07:46:43;;;;;;;1.52;1.42;;;4.70;77.00;;;;;;6337870;22;20032;-68
2022/03/11 07:49:10;;;;;;;0.65;0.65;;;4.90;76.80;;;;;;6310123;22;20003;-68
2022/03/11 07:51:36;;;;;;;0.82;0.82;;;4.90;76.50;;;;;;6347709;22;20454;-68
2022/03/11 07:54:03;;;;;;;0.10;0.10;;;5.00;76.10;;;;;;6337444;22;20011;-68
2022/03/11 07:56:29;;;;;;;0.75;0.68;;;5.00;76.10;;;;;;6347962;22;20339;-68
2022/03/11 07:59:06;;;;;;;0.17;0.17;;;5.00;75.90;;;;;;6337361;22;20027;-68
2022/03/11 08:01:32;;;;;;;0.15;0.15;;;5.20;76.30;;;;;;6337923;22;20030;-69
2022/03/11 08:03:58;;;;;;;0.55;0.55;;;5.30;75.10;;;;;;6337277;22;20456;-68
2022/03/11 08:06:24;;;;;;;1.75;1.65;;;5.30;75.20;;;;;;6337468;22;20086;-68
2022/03/11 08:08:50;;;;;;;0.17;0.17;;;5.40;74.80;;;;;;6337626;22;20042;-68
2022/03/11 08:11:16;;;;;;;1.77;1.67;;;5.50;74.40;;;;;;6337665;22;20003;-69
2022/03/11 08:13:42;;;;;;;0.00;0.00;;;5.50;73.40;;;;;;6337631;22;20071;-69
2022/03/11 08:16:08;;;;;;;0.10;0.10;;;5.50;73.10;;;;;;6337548;22;20013;-69
2022/03/11 08:18:35;;;;;;;1.67;1.58;;;5.60;73.40;;;;;;6337221;22;20007;-68
2022/03/11 08:21:03;;;;;;;0.30;0.30;;;5.70;73.70;;;;;;6347215;22;20033;-69
2022/03/11 08:23:29;;;;;;;0.50;0.50;;;5.80;73.00;;;;;;6337597;22;20017;-69
2022/03/11 08:25:55;;;;;;;0.45;0.32;;;5.80;72.80;;;;;;6337257;22;20021;-69
2022/03/11 08:28:22;;;;;;;0.25;0.25;;;5.90;72.10;;;;;;6337574;22;20003;-69
2022/03/11 08:30:49;;;;;;;0.65;0.65;;;5.90;72.20;;;;;;6310012;22;20013;-69
2022/03/11 08:33:20;;;;;;;0.82;0.80;;;6.10;72.20;;;;;;6337330;22;20013;-69
2022/03/11 08:35:50;;;;;;;;;;;6.10;71.70;;;;;;6337893;22;20056;-69
2022/03/11 08:38:17;;;;;;;1.30;1.15;;;6.20;71.20;;;;;;6337425;22;19990;-69
2022/03/11 08:40:43;;;;;;;0.40;0.40;;;6.20;71.80;;;;;;6337240;22;20006;-69
2022/03/11 08:43:09;;;;;;;0.13;0.13;;;6.30;71.20;;;;;;6347274;22;20052;-68
2022/03/11 08:45:36;;;;;;;0.35;0.25;;;6.30;71.10;;;;;;6347364;22;20094;-69
2022/03/11 08:48:02;;;;;;;6.63;2.47;;;6.40;71.20;;;;;;6347340;22;20002;-69
2022/03/11 08:50:28;;;;;;;0.20;0.20;;;6.40;71.40;;;;;;6347311;22;20009;-69
2022/03/11 08:52:54;;;;;;;0.95;0.95;;;6.40;70.70;;;;;;6347081;22;20459;-69
2022/03/11 08:55:20;;;;;;;1.00;1.00;;;6.30;70.00;;;;;;6337232;22;20007;-69
2022/03/11 08:57:49;;;;;;;3.20;1.30;;;6.40;71.80;;;;;;6337189;22;20007;-68
2022/03/11 09:00:16;;;;;;;2.47;2.28;;;6.50;70.10;;;;;;6336869;22;20121;-68
2022/03/11 09:02:44;;;;;;;0.43;0.43;;;6.50;70.40;;;;;;6337055;22;20003;-69
2022/03/11 09:05:10;;;;;;;0.52;0.52;;;6.50;70.00;;;;;;6346784;22;20013;-69
2022/03/11 09:07:36;;;;;;;2.53;2.00;;;6.70;70.80;;;;;;6337030;22;20499;-69
2022/03/11 09:10:09;;;;;;;0.98;0.98;;;6.80;69.70;;;;;;6336737;22;20343;-68
2022/03/11 09:12:36;;;;;;;1.30;1.20;;;6.90;70.10;;;;;;6337181;22;20034;-68
2022/03/11 09:15:04;;;;;;;0.08;0.08;;;7.10;70.10;;;;;;6336813;22;20009;-68
2022/03/11 09:17:30;;;;;;;0.00;0.00;;;7.20;69.50;;;;;;6337140;22;20006;-68
2022/03/11 09:19:56;;;;;;;1.08;1.02;;;7.40;69.00;;;;;;6336280;22;20006;-68
2022/03/11 09:22:22;;;;;;;0.40;0.40;;;7.40;68.90;;;;;;6336974;22;20011;-70
2022/03/11 09:24:48;;;;;;;0.43;0.43;;;7.30;68.60;;;;;;6347155;22;20060;-68
2022/03/11 09:27:14;;;;;;;1.23;1.13;;;7.40;68.00;;;;;;6346978;22;20011;-70
2022/03/11 09:29:40;;;;;;;0.30;0.30;;;7.60;69.60;;;;;;6346973;22;20038;-68
2022/03/11 09:32:07;;;;;;;1.15;1.13;;;7.70;68.80;;;;;;6346923;22;20014;-69
2022/03/11 09:34:34;;;;;;;0.85;0.85;;;7.80;69.50;;;;;;6336629;22;20035;-68
2022/03/11 09:37:00;;;;;;;0.63;0.63;;;7.80;66.50;;;;;;6309880;22;20056;-68
2022/03/11 09:39:27;;;;;;;1.52;1.42;;;7.80;67.10;;;;;;6338846;22;20007;-68
2022/03/11 09:41:53;;;;;;;4.07;1.25;;;7.70;67.60;;;;;;6338969;22;20080;-68
2022/03/11 09:44:20;;;;;;;1.00;0.95;;;7.80;68.50;;;;;;6338806;22;20072;-68
2022/03/11 09:46:47;;;;;;;1.98;1.85;;;7.90;67.50;;;;;;6349201;22;20419;-68
2022/03/11 09:49:14;;;;;;;8.98;1.00;;;8.00;67.20;;;;;;6311513;22;20003;-68
2022/03/11 09:51:41;;;;;;;0.57;0.57;;;8.00;67.60;;;;;;6310534;22;20014;-67
2022/03/11 09:54:09;;;;;;;0.10;0.10;;;8.20;67.30;;;;;;6338598;22;20002;-68
2022/03/11 09:56:40;;;;;;;1.10;0.90;;;8.50;66.50;;;;;;6339024;22;20018;-68
2022/03/11 09:59:11;;;;;;;0.52;0.52;;;8.60;66.10;;;;;;6348986;22;20011;-68
2022/03/11 10:01:40;;;;;;;0.43;0.43;;;8.80;66.50;;;;;;6349004;22;20006;-68
2022/03/11 10:04:07;;;;;;;4.00;0.98;;;8.90;65.40;;;;;;6338641;22;20132;-68
2022/03/11 10:06:39;;;;;;;0.30;0.30;;;8.90;65.90;;;;;;6348723;22;20014;-68
2022/03/11 10:09:26;;;;;;;8.73;2.75;;;8.90;64.80;;;;;;6338087;22;20030;-68
2022/03/11 10:11:54;;;;;;;2.17;1.35;;;8.90;65.60;;;;;;6337766;22;20013;-68
2022/03/11 10:14:32;;;;;;;0.50;0.50;;;9.00;66.00;;;;;;6310609;22;20485;-68
2022/03/11 10:17:00;;;;;;;0.17;0.17;;;9.40;65.10;;;;;;6348601;22;20042;-68
2022/03/11 10:19:25;;;;;;;0.20;0.20;;;9.40;63.90;;;;;;6348327;22;20033;-69
2022/03/11 10:21:55;;;;;;;0.98;0.95;;;9.60;64.80;;;;;;6348327;22;20011;-68
2022/03/11 10:24:21;;;;;;;1.30;1.20;;;9.60;64.50;;;;;;6321567;22;20503;-68
2022/03/11 10:26:49;;;;;;;4.75;1.60;;;9.20;64.10;;;;;;6348564;22;20063;-68
2022/03/11 10:29:19;;;;;;;0.75;0.75;;;9.70;65.40;;;;;;6311169;22;20003;-69
2022/03/11 10:31:48;;;;;;;0.13;0.13;;;10.00;63.60;;;;;;6338400;22;20014;-68
2022/03/11 10:34:31;;;;;;;8.40;3.65;;;10.10;63.60;;;;;;6311159;22;20038;-68
2022/03/11 10:37:00;;;;;;;1.75;1.65;;;10.10;63.90;;;;;;6348425;22;20007;-68
2022/03/11 10:39:30;;;;;;;0.57;0.57;;;10.20;63.90;;;;;;6337988;22;20015;-68
2022/03/11 10:42:00;;;;;;;4.90;1.80;;;10.50;63.10;;;;;;6311048;22;20011;-68
2022/03/11 10:44:28;;;;;;;1.65;1.55;;;10.60;63.80;;;;;;6348275;22;20344;-69
2022/03/11 10:46:56;;;;;;;0.57;0.57;;;10.90;62.90;;;;;;6338092;22;20052;-69
2022/03/11 10:49:34;;;;;;;0.38;0.38;;;10.80;62.10;;;;;;6347438;22;20065;-69
2022/03/11 10:52:01;;;;;;;0.40;0.40;;;10.90;61.50;;;;;;6337466;22;20014;-69
2022/03/11 10:54:29;;;;;;;1.75;1.38;;;10.70;61.40;;;;;;6337827;22;20017;-69
2022/03/11 10:57:06;;;;;;;0.00;0.00;;;10.90;61.70;;;;;;6337985;22;20006;-69
2022/03/11 10:59:32;;;;;;;1.00;0.90;;;10.90;61.20;;;;;;6337885;22;20308;-69
2022/03/11 11:01:58;;;;;;;0.30;0.30;;;11.20;61.90;;;;;;6338109;22;20060;-68
2022/03/11 11:04:26;;;;;;;2.08;0.85;;;11.30;61.80;;;;;;6337960;22;20018;-69
2022/03/11 11:06:53;;;;;;;3.28;2.13;;;11.60;61.90;;;;;;6337844;22;20003;-70
2022/03/11 11:09:23;;;;;;;2.30;2.03;;;11.40;61.50;;;;;;6347755;22;20034;-69
2022/03/11 11:11:51;;;;;;;1.67;1.55;;;11.50;61.30;;;;;;6320497;22;20011;-70
2022/03/11 11:14:17;;;;;;;2.63;0.95;;;11.70;61.00;;;;;;6337752;22;20038;-68
2022/03/11 11:16:48;;;;;;;0.00;0.00;;;12.10;59.80;;;;;;6338037;22;20003;-68
2022/03/11 11:19:19;;;;;;;2.08;1.17;;;12.30;61.60;;;;;;6310612;22;20021;-69
2022/03/11 11:21:48;;;;;;;1.00;0.95;;;12.30;60.20;;;;;;6337946;22;20007;-69
2022/03/11 11:24:20;;;;;;;1.10;1.00;;;11.80;59.90;;;;;;6337618;22;20007;-68
2022/03/11 11:26:49;;;;;;;0.10;0.10;;;12.20;61.00;;;;;;6347945;22;20003;-67
2022/03/11 11:29:33;;;;;;;0.08;0.08;;;12.30;60.60;;;;;;6348010;22;20439;-67
2022/03/11 11:32:00;;;;;;;1.27;1.17;;;11.80;59.80;;;;;;6337929;22;20011;-68
2022/03/11 11:34:33;;;;;;;1.88;1.77;;;12.40;58.30;;;;;;6347664;22;20007;-67
2022/03/11 11:37:01;;;;;;;0.70;0.35;;;12.30;59.10;;;;;;6347685;22;20007;-67
2022/03/11 11:39:39;;;;;;;0.55;0.52;;;12.20;58.60;;;;;;6310217;22;20011;-67
2022/03/11 11:42:15;;;;;;;0.38;0.38;;;12.60;60.90;;;;;;6347817;22;20044;-67
2022/03/11 11:44:43;;;;;;;0.65;0.65;;;12.60;58.50;;;;;;6337634;22;20427;-68
2022/03/11 11:47:13;;;;;;;2.22;1.67;;;12.80;57.70;;;;;;6320259;22;20007;-68
2022/03/11 11:49:47;;;;;;;0.63;0.63;;;12.80;59.20;;;;;;6337849;22;20086;-66
2022/03/11 11:52:36;;;;;;;0.40;0.40;;;12.90;58.70;;;;;;6336986;22;20010;-67
2022/03/11 11:55:21;;;;;;;0.80;0.75;;;13.00;56.20;;;;;;6337722;22;20415;-67
2022/03/11 11:57:49;;;;;;;1.27;1.17;;;13.20;57.90;;;;;;6337670;22;20078;-67
2022/03/11 12:00:32;;;;;;;2.33;0.75;;;13.70;57.00;;;;;;6284011;22;20007;-68
2022/03/11 12:02:59;;;;;;;1.25;1.15;;;13.30;55.90;;;;;;6347859;22;20103;-68
2022/03/11 12:05:48;;;;;;;1.48;1.38;;;13.70;57.30;;;;;;6337415;22;20089;-68
2022/03/11 12:08:39;;;;;;;0.45;0.45;;;14.70;55.60;;;;;;6336974;22;20017;-68
2022/03/11 12:11:06;;;;;;;0.50;0.50;;;15.60;55.00;;;;;;6337538;22;20007;-68
2022/03/11 12:13:35;;;;;;;1.45;1.08;;;15.50;54.80;;;;;;6337381;22;20022;-68
2022/03/11 12:16:03;;;;;;;2.72;0.80;;;15.90;54.20;;;;;;6347412;22;20388;-68
2022/03/11 12:18:44;;;;;;;1.90;0.85;;;16.80;51.10;;;;;;6347045;22;20017;-68
2022/03/11 12:21:37;;;;;;;0.47;0.30;;;16.40;51.70;;;;;;6337076;22;20463;-67
2022/03/11 12:24:34;;;;;;;1.90;1.48;;;16.00;53.00;;;;;;6337496;22;20017;-68
2022/03/11 12:27:01;;;;;;;8.25;2.20;;;15.00;53.50;;;;;;6337317;22;20017;-67
2022/03/11 12:29:36;;;;;;;1.13;1.02;;;15.70;52.50;;;;;;6309473;22;20046;-68
2022/03/11 12:32:12;;;;;;;1.52;1.42;;;14.90;54.70;;;;;;6336969;22;19999;-67
2022/03/11 12:34:38;;;;;;;2.97;1.08;;;14.90;53.90;;;;;;6337184;22;20011;-67
2022/03/11 12:37:06;;;;;;;0.15;0.15;;;14.70;55.10;;;;;;6336934;22;20029;-68
2022/03/11 12:39:38;;;;;;;0.80;0.68;;;15.20;54.40;;;;;;6337114;22;20006;-68
2022/03/11 12:42:04;;;;;;;0.75;0.75;;;15.00;54.70;;;;;;6283417;22;19998;-68
2022/03/11 12:44:45;;;;;;;1.27;0.57;;;15.10;53.90;;;;;;6347118;22;20320;-68
2022/03/11 12:47:16;;;;;;;0.75;0.75;;;15.20;53.70;;;;;;6336882;22;20014;-67
2022/03/11 12:49:42;;;;;;;;;;;15.50;53.60;;;;;;6337835;22;20485;-67
2022/03/11 12:52:20;;;;;;;3.97;2.63;;;15.40;52.20;;;;;;6308770;22;19985;-67
2022/03/11 12:54:49;;;;;;;5.28;0.90;;;16.60;52.90;;;;;;6346850;22;20351;-68
2022/03/11 12:57:17;;;;;;;2.28;1.27;;;16.60;51.00;;;;;;6346930;22;20140;-68
2022/03/11 12:59:45;;;;;;;3.50;1.45;;;18.10;50.20;;;;;;6346979;22;20447;-68